Station info - map view · info · telemetry · weather · raw · status · beacons · messages · bulletins · browse · moving · my account
Callsign, ship name or locator: Clear       
It is possible to search using wildcards (*?) after a prefix. Example: OH*
APRS station HB9TXW-9 - show graphs
Map loading...
Comment: 145.650MHz tOFF -060
Mic-E message: En route
Location: 50°09.15' N 3°21.96' E - locator JO10QD36WO - show map - static map
1.2 miles Northwest bearing 332° from Beauvois-en-Cambrésis, Département du Nord, Nord-Pas-de-Calais, France [?]
1.5 miles North bearing 341° from Fontaine-au-Pire, Département du Nord, Nord-Pas-de-Calais, France
64.7 miles Southwest bearing 222° from Brussels, (Bruxelles-Capitale), Brussels Capital Region, Belgium
86.6 miles Southwest bearing 212° from Antwerpen, Provincie Antwerpen, Flanders, Belgium
Last position: 2018-06-13 08:38:42 EDT (8d 9h28m ago)
2018-06-13 14:38:42 CEST local time at Beauvois-en-Cambrésis, France [?]
Altitude: 331 ft
Course: 333°
Device: Yaesu: FTM-350 (rig)
Last path: HB9TXW-9>UP0YQ5 via F3CJ,WIDE1,ON0MSD*,qAR,ON7SD-5 (good)
Positions stored: 24870
Stations near current position of HB9TXW-9 - show more
callsign distance last heard - EDT      callsign distance last heard - EDT
F4BIO-132.6 miles 71°2018-06-21 17:52:32 F1NWC-35.5 miles 283°2018-06-21 18:04:11
F4FHM6.4 miles 110°2018-06-21 18:00:23 F4FHM-R6.4 miles 110°2018-06-19 14:07:31
F4FHM-N6.4 miles 110°2018-06-21 17:48:34 F5NTS6.6 miles 30°2018-06-21 18:06:53
F5NTS-136.6 miles 30°2018-06-21 18:06:53 F5NTS-96.8 miles 31°2018-06-18 13:49:57
F1BPT-97.8 miles 51°2018-05-30 00:51:16 PS-F1MIJ9.3 miles 342°2018-06-21 18:00:11
F1MIJ-129.5 miles 346°2018-06-21 13:23:52 F1MIJ9.6 miles 344°2018-06-21 18:00:32
F1MIJ B9.6 miles 344°2018-06-21 14:19:22 F1MIJ-B9.6 miles 344°2018-06-21 14:19:32
F4FVI-512.3 miles 35°2018-06-10 13:34:06 F1NCS B14.3 miles 344°2018-06-21 18:01:29
F1NCS-B14.3 miles 344°2018-06-21 18:01:39 F4FXO B14.5 miles 17°2018-06-02 01:38:21
F4FXO-B14.5 miles 17°2018-06-02 01:38:31 VILLERS-POL15.3 miles 50°2018-06-06 18:24:40
Stations which heard HB9TXW-9 directly on radio –
callsign pkts first heard - EDT last heard longest (tx => rx) longest at - EDT
HB9FS 3 2018-06-07 02:12:45 2018-06-07 02:20:21 JN37VJ > JN37VL 7.0 miles 0° 2018-06-07 02:12:45
HB9BA-2 4 2018-06-07 01:40:47 2018-06-07 02:08:02 JN37VH > JN37SB 21.3 miles 216° 2018-06-07 02:08:02
LX0APS-2 1 2018-06-12 07:31:58 2018-06-12 07:31:58 JN29ON > JN29WN 27.3 miles 96° 2018-06-12 07:31:58
DB0RO 11 2018-06-07 04:20:43 2018-06-07 12:51:09 JN49KF > JN49AF 38.2 miles 269° 2018-06-07 12:17:27
HB9FM-4 3 2018-06-07 02:18:15 2018-06-07 02:27:53 JN37VL > JN37SM 11.1 miles 293° 2018-06-07 02:18:15
DB0TFM-1 10 2018-06-07 04:11:47 2018-06-07 12:48:57 JN49FI > JN48ES 40.8 miles 181° 2018-06-07 12:48:57
F6HOR-3 3 2018-06-07 02:49:23 2018-06-07 03:26:19 JN37SS > JN38OC 26.4 miles 328° 2018-06-07 02:49:23
DB0FRB 1 2018-06-07 03:11:52 2018-06-07 03:11:52 JN38VB > JN38WA 2.9 miles 156° 2018-06-07 03:11:52
DB0LHR-10 10 2018-06-07 03:17:08 2018-06-07 03:42:20 JN38VD > JN38WI 14.7 miles 17° 2018-06-07 03:17:08
F8KOX-4 1 2018-06-07 03:03:31 2018-06-07 03:03:31 JN37UW > JN37KT 40.0 miles 256° 2018-06-07 03:03:31
HB9XC-4 3 2018-06-07 02:56:38 2018-06-07 03:18:01 JN38VD > JN37OG 66.1 miles 202° 2018-06-07 03:18:01
HB9IPA 1 2018-06-07 02:14:31 2018-06-07 02:14:31 JN37VJ > JN37TN 14.0 miles 322° 2018-06-07 02:14:31
F6KTN 10 2018-06-13 07:29:59 2018-06-13 08:20:23 JN29BV > JO10VE 25.3 miles 328° 2018-06-13 07:29:59
HB4FV-4 1 2018-06-07 01:38:25 2018-06-07 01:38:25 JN36RX > JN36EQ 54.2 miles 249° 2018-06-07 01:38:25
HB9AVQ-10 4 2018-06-07 01:33:11 2018-06-07 01:40:10 JN37RA > JN36QW 7.7 miles 214° 2018-06-07 01:40:10
DO6WN 1 2018-06-07 04:54:33 2018-06-07 04:54:33 JN49IG > JN49EP 30.3 miles 326° 2018-06-07 04:54:33
DB0FTC 6 2018-06-07 12:29:42 2018-06-07 13:10:58 JN49IG > JN49BO 34.2 miles 310° 2018-06-07 12:29:42
F5ZEE 3 2018-06-07 03:35:13 2018-06-07 04:15:16 JN38VI > JN38TX 44.2 miles 350° 2018-06-07 03:35:13
DB0KIT 6 2018-06-07 04:16:47 2018-06-07 04:35:59 JN49GD > JN49EA 10.8 miles 216° 2018-06-07 04:35:59
DB0TN-10 1 2018-06-07 03:44:06 2018-06-07 03:44:06 JN38WL > JN48BI 14.5 miles 128° 2018-06-07 03:44:06
DB0DB-10 12 2018-06-07 02:21:24 2018-06-07 03:01:43 JN37VM > JN37US 19.1 miles 351° 2018-06-07 02:21:24
HB9PM-4 2 2018-06-07 01:38:29 2018-06-07 01:41:58 JN36RX > JN37SG 19.6 miles 12° 2018-06-07 01:38:29
HB9FM-10 7 2018-06-07 01:39:34 2018-06-07 02:47:35 JN37RA > JN37SK 30.9 miles 6° 2018-06-07 01:39:34
F8KCS-2 6 2018-06-13 07:28:15 2018-06-13 08:18:15 JN29BV > JN19RN 38.1 miles 237° 2018-06-13 07:28:15
DB0WIM 1 2018-06-07 12:39:38 2018-06-07 12:39:38 JN49GH > JN49CD 19.6 miles 228° 2018-06-07 12:39:38
DB0FRK-10 2 2018-06-07 02:59:57 2018-06-07 03:13:36 JN37TW > JN37WX 14.4 miles 78° 2018-06-07 02:59:57
F3CJ 5 2018-06-13 08:25:21 2018-06-13 08:38:42 JO10RC > JO10LG 26.6 miles 296° 2018-06-13 08:25:21
DB0ODE-10 8 2018-06-07 04:46:37 2018-06-07 13:00:58 JN49FI > JN49MH 28.9 miles 91° 2018-06-07 13:00:58
HB9F-10 15 2018-06-07 01:25:38 2018-06-07 03:22:43 JN38UE > JN36WN 113.2 miles 178° 2018-06-07 03:22:43
HB9TQL-10 2 2018-06-07 02:22:53 2018-06-07 02:27:11 JN37TM > JN37UM 2.5 miles 109° 2018-06-07 02:27:11
DB1SB-10 2 2018-06-07 04:38:30 2018-06-07 04:40:16 JN49GE > JN49IF 6.7 miles 42° 2018-06-07 04:38:30
HB9IPA-10 2 2018-06-07 01:51:40 2018-06-07 01:53:27 JN37TE > JN37SG 6.6 miles 326° 2018-06-07 01:51:40
DB0HOR-10 2 2018-06-07 03:19:51 2018-06-07 03:28:08 JN38VD > JN48CN 36.7 miles 35° 2018-06-07 03:19:51
F4KKD-3 6 2018-06-13 07:27:42 2018-06-13 08:17:42 JN29BV > JN19TV 22.5 miles 276° 2018-06-13 07:27:42
HB9ADF-5 10 2018-06-07 01:16:36 2018-06-07 01:34:58 JN36SV > JN36SX 5.8 miles 342° 2018-06-07 01:26:26
HB9BHU-10 1 2018-06-07 02:06:27 2018-06-07 02:06:27 JN37VH > JN37XG 8.0 miles 104° 2018-06-07 02:06:27

Only position packets which were originated by the station are shown here. The range statistics show some extra long hops, because some digipeaters do not correctly add themselves to the digipeater path. Please check the raw packets.
About this site
This page shows real-time information collected from the Automatic Position Reporting System Internet network (APRS-IS). APRS is used by amateur (ham) radio operators to transmit real-time position information, weather data, telemetry and messages over the radio. A vehicle equipped with a GPS receiver, a VHF transmitter or HF transceiver and a small computer device called a tracker transmits it's location, speed and course in a small data packet, which is then received by a nearby iGate receiving site which forwards the packet on the Internet. Systems connected to the Internet can send information on the APRS-IS without a radio transmitter, or collect and display information transmitted anywhere in the world.
FAQ · Blog · Discussion group · Linking to aprs.fi · AIS sites · Service status · Database statistics · Advertising on aprs.fi · Technical details · API · Change log · Planned changes · Credits and thanks · Terms Of Service · iPhone/iPad APRS